Wetterdaten: Woche 07.03.05 - 13.03.05 (KW10)
Datum Zeit Temperatur Luftfeuchte Luftdruck Niederschlag Wind Richtung Sonne Solar Taupunkt Windchill
07.03.2005 00:00 -7.8 C 73 % 1023.6 hPa 0.0 l/m 4.7 km/h (1 Bft) O-SO 0.00 h 0 W/m -11.7 C -9.9 C
07.03.2005 01:00 -8.8 C 76 % 1024.1 hPa 0.0 l/m 6.6 km/h (2 Bft) O-SO 0.00 h 0 W/m -12.2 C -12.1 C
07.03.2005 02:00 -9.8 C 79 % 1024.3 hPa 0.0 l/m 5.6 km/h (1 Bft) O-SO 0.00 h 0 W/m -12.8 C -12.7 C
07.03.2005 03:00 -9.9 C 80 % 1024.3 hPa 0.0 l/m 4.6 km/h (1 Bft) O-NO 0.00 h 0 W/m -12.6 C -11.9 C
07.03.2005 04:00 -9.3 C 80 % 1024.2 hPa 0.0 l/m 6.3 km/h (2 Bft) O-SO 0.00 h 0 W/m -12.1 C -12.6 C
07.03.2005 05:00 -8.6 C 79 % 1024.1 hPa 0.0 l/m 3.6 km/h (1 Bft) O-NO 0.00 h 0 W/m -11.5 C -10.0 C
07.03.2005 06:00 -7.8 C 79 % 1024.9 hPa 0.0 l/m 0.1 km/h (0 Bft) N 0.00 h 0 W/m -10.7 C -7.8 C
07.03.2005 07:00 -7.0 C 77 % 1024.9 hPa 0.0 l/m 0.2 km/h (0 Bft) W-NW 0.00 h 12 W/m -10.3 C -7.0 C
07.03.2005 08:00 -6.8 C 75 % 1025.3 hPa 0.0 l/m 0.1 km/h (0 Bft) N 0.50 h 163 W/m -10.5 C -6.8 C
07.03.2005 09:00 -5.1 C 68 % 1025.6 hPa 0.0 l/m 2.3 km/h (1 Bft) O-SO 0.90 h 354 W/m -10.0 C -6.0 C
07.03.2005 10:00 -3.4 C 61 % 1025.3 hPa 0.0 l/m 6.9 km/h (2 Bft) O-SO 0.97 h 480 W/m -9.9 C -6.1 C
07.03.2005 11:00 -3.1 C 54 % 1025.2 hPa 0.0 l/m 15.7 km/h (3 Bft) W-NW 0.23 h 346 W/m -10.9 C -8.3 C
07.03.2005 12:00 -2.1 C 51 % 1024.1 hPa 0.0 l/m 18.1 km/h (3 Bft) W-NW 0.33 h 376 W/m -10.8 C -7.5 C
07.03.2005 13:00 -0.5 C 47 % 1023.9 hPa 0.0 l/m 14.8 km/h (3 Bft) W-NW 0.80 h 506 W/m -10.4 C -4.9 C
07.03.2005 14:00 -0.2 C 46 % 1023.3 hPa 0.0 l/m 21.5 km/h (4 Bft) NW 1.00 h 463 W/m -10.4 C -5.7 C
07.03.2005 15:00 -0.0 C 47 % 1023.4 hPa 0.0 l/m 18.6 km/h (3 Bft) NW 0.53 h 293 W/m -10.0 C -4.8 C
07.03.2005 16:00 -0.1 C 51 % 1022.8 hPa 0.0 l/m 14.9 km/h (3 Bft) W-NW 0.13 h 154 W/m -9.0 C -4.5 C
07.03.2005 17:00 -0.4 C 53 % 1023.2 hPa 0.0 l/m 14.8 km/h (3 Bft) W-NW 0.28 h 75 W/m -8.9 C -4.7 C
07.03.2005 18:00 -1.1 C 57 % 1024.0 hPa 0.0 l/m 4.9 km/h (1 Bft) W-NW 0.00 h 10 W/m -8.6 C -2.6 C
07.03.2005 19:00 -1.6 C 61 % 1024.3 hPa 0.0 l/m 3.6 km/h (1 Bft) W-NW 0.00 h 0 W/m -8.0 C -2.7 C
07.03.2005 20:00 -1.8 C 66 % 1024.9 hPa 0.0 l/m 1.9 km/h (1 Bft) W-NW 0.00 h 0 W/m -7.3 C -2.4 C
07.03.2005 21:00 -1.6 C 68 % 1025.1 hPa 0.0 l/m 3.0 km/h (1 Bft) W-NW 0.00 h 0 W/m -6.7 C -2.4 C
07.03.2005 22:00 -2.1 C 76 % 1025.1 hPa 0.0 l/m 3.2 km/h (1 Bft) S-SO 0.00 h 0 W/m -5.8 C -3.0 C
07.03.2005 23:00 -2.3 C 81 % 1025.2 hPa 0.0 l/m 2.3 km/h (1 Bft) S 0.00 h 0 W/m -5.1 C -3.0 C
08.03.2005 00:00 -2.6 C 86 % 1025.2 hPa 0.3 l/m 4.9 km/h (1 Bft) S-SW 0.00 h 0 W/m -4.6 C -4.1 C
08.03.2005 01:00 -2.9 C 89 % 1025.3 hPa 0.0 l/m 6.2 km/h (2 Bft) S-SO 0.00 h 0 W/m -4.5 C -5.0 C
08.03.2005 02:00 -3.0 C 90 % 1024.7 hPa 0.3 l/m 2.8 km/h (1 Bft) S 0.00 h 0 W/m -4.3 C -3.6 C
08.03.2005 03:00 -2.9 C 91 % 1024.2 hPa 0.3 l/m 2.0 km/h (1 Bft) S-SO 0.00 h 0 W/m -4.2 C -3.3 C
08.03.2005 04:00 -2.8 C 91 % 1024.2 hPa 0.0 l/m 1.0 km/h (0 Bft) S 0.00 h 0 W/m -4.1 C -3.0 C
08.03.2005 05:00 -2.5 C 88 % 1024.2 hPa 0.0 l/m 3.3 km/h (1 Bft) S-SO 0.00 h 0 W/m -4.2 C -3.3 C
08.03.2005 06:00 -2.4 C 87 % 1025.2 hPa 0.3 l/m 1.7 km/h (1 Bft) SO 0.00 h 0 W/m -4.3 C -2.7 C
08.03.2005 07:00 -2.2 C 88 % 1025.2 hPa 0.0 l/m 1.4 km/h (1 Bft) S 0.00 h 21 W/m -3.9 C -2.4 C
08.03.2005 08:00 -1.7 C 87 % 1025.8 hPa 0.0 l/m 2.9 km/h (1 Bft) SO 0.00 h 73 W/m -3.6 C -2.4 C
08.03.2005 09:00 -1.2 C 85 % 1026.0 hPa 0.3 l/m 5.0 km/h (1 Bft) S-SO 0.00 h 113 W/m -3.5 C -2.7 C
08.03.2005 10:00 -0.2 C 82 % 1026.0 hPa 0.0 l/m 7.5 km/h (2 Bft) SO 0.00 h 231 W/m -2.8 C -2.4 C
08.03.2005 11:00 0.6 C 80 % 1026.4 hPa 0.0 l/m 9.3 km/h (2 Bft) SO 0.07 h 267 W/m -2.5 C -2.0 C
08.03.2005 12:00 2.4 C 73 % 1025.5 hPa 0.0 l/m 12.3 km/h (3 Bft) W 0.97 h 538 W/m -2.0 C -0.7 C
08.03.2005 13:00 2.5 C 73 % 1025.5 hPa 0.0 l/m 9.9 km/h (2 Bft) S-SO 0.20 h 243 W/m -1.8 C -0.0 C
08.03.2005 14:00 3.1 C 76 % 1025.4 hPa 0.0 l/m 11.1 km/h (2 Bft) W 0.07 h 250 W/m -0.8 C 0.6 C
08.03.2005 15:00 3.1 C 74 % 1025.4 hPa 0.0 l/m 18.9 km/h (3 Bft) W-NW 0.00 h 158 W/m -1.1 C -1.2 C
08.03.2005 16:00 2.9 C 75 % 1025.4 hPa 0.0 l/m 8.5 km/h (2 Bft) W-NW 0.00 h 75 W/m -1.1 C 0.8 C
08.03.2005 17:00 2.6 C 74 % 1025.7 hPa 0.0 l/m 19.7 km/h (3 Bft) W-NW 0.00 h 19 W/m -1.5 C -1.7 C
08.03.2005 18:00 2.4 C 76 % 1026.7 hPa 0.0 l/m 19.6 km/h (3 Bft) W-NW 0.00 h 5 W/m -1.4 C -2.1 C
08.03.2005 19:00 2.0 C 82 % 1027.7 hPa 0.0 l/m 8.5 km/h (2 Bft) W-NW 0.00 h 0 W/m -0.8 C -0.4 C
08.03.2005 20:00 2.1 C 79 % 1027.6 hPa 0.0 l/m 14.3 km/h (3 Bft) W-NW 0.00 h 0 W/m -1.1 C -1.6 C
08.03.2005 21:00 2.2 C 79 % 1027.6 hPa 0.0 l/m 13.2 km/h (3 Bft) W-NW 0.00 h 0 W/m -1.1 C -1.3 C
08.03.2005 22:00 2.1 C 80 % 1027.6 hPa 0.0 l/m 10.9 km/h (2 Bft) W 0.00 h 0 W/m -1.0 C -0.9 C
08.03.2005 23:00 2.0 C 80 % 1027.7 hPa 0.0 l/m 12.2 km/h (2 Bft) W-NW 0.00 h 0 W/m -1.0 C -1.1 C
09.03.2005 00:00 1.7 C 85 % 1027.7 hPa 0.0 l/m 4.6 km/h (1 Bft) W 0.00 h 0 W/m -0.6 C 0.5 C
09.03.2005 01:00 1.5 C 87 % 1027.7 hPa 0.0 l/m 3.7 km/h (1 Bft) W-NW 0.00 h 0 W/m -0.5 C 0.7 C
09.03.2005 02:00 1.2 C 92 % 1027.8 hPa 0.0 l/m 2.4 km/h (1 Bft) W 0.00 h 0 W/m 0.1 C 0.8 C
09.03.2005 03:00 1.6 C 94 % 1027.7 hPa 0.0 l/m 18.1 km/h (3 Bft) W-NW 0.00 h 0 W/m 0.7 C -2.8 C
09.03.2005 04:00 1.9 C 89 % 1027.7 hPa 0.0 l/m 13.1 km/h (3 Bft) W-NW 0.00 h 0 W/m 0.3 C -1.2 C
09.03.2005 05:00 1.9 C 86 % 1027.7 hPa 0.0 l/m 14.3 km/h (3 Bft) W-NW 0.00 h 0 W/m -0.1 C -1.8 C
09.03.2005 06:00 1.6 C 90 % 1027.7 hPa 0.0 l/m 12.5 km/h (3 Bft) W-NW 0.00 h 1 W/m 0.1 C -1.9 C
09.03.2005 07:00 1.8 C 88 % 1027.7 hPa 0.0 l/m 12.8 km/h (3 Bft) W-NW 0.00 h 11 W/m 0.0 C -1.4 C
09.03.2005 08:00 2.0 C 82 % 1028.6 hPa 0.0 l/m 2.2 km/h (1 Bft) W-NW 0.00 h 56 W/m -0.7 C 1.6 C
09.03.2005 09:00 2.4 C 78 % 1028.6 hPa 0.0 l/m 11.1 km/h (2 Bft) W-NW 0.00 h 135 W/m -0.9 C -0.3 C
09.03.2005 10:00 2.8 C 76 % 1028.6 hPa 0.0 l/m 9.1 km/h (2 Bft) NW 0.00 h 164 W/m -0.9 C 0.7 C
09.03.2005 11:00 3.3 C 74 % 1028.5 hPa 0.0 l/m 7.1 km/h (2 Bft) W-NW 0.00 h 182 W/m -0.9 C 1.7 C
09.03.2005 12:00 3.1 C 77 % 1028.5 hPa 0.0 l/m 25.1 km/h (4 Bft) NW 0.00 h 258 W/m -0.6 C -1.8 C
09.03.2005 13:00 3.5 C 77 % 1028.5 hPa 0.0 l/m 26.7 km/h (4 Bft) W-NW 0.20 h 345 W/m -0.2 C -1.6 C
09.03.2005 14:00 4.0 C 72 % 1027.7 hPa 0.0 l/m 24.4 km/h (4 Bft) W-NW 0.22 h 348 W/m -0.7 C -0.7 C
09.03.2005 15:00 4.3 C 67 % 1027.3 hPa 0.0 l/m 18.9 km/h (3 Bft) W-NW 0.17 h 217 W/m -1.3 C 0.5 C
09.03.2005 16:00 3.4 C 73 % 1028.1 hPa 0.0 l/m 22.8 km/h (4 Bft) W-NW 0.00 h 43 W/m -1.0 C -1.2 C
09.03.2005 17:00 2.7 C 80 % 1028.6 hPa 0.0 l/m 4.9 km/h (1 Bft) W-NW 0.00 h 20 W/m -0.4 C 1.6 C
09.03.2005 18:00 2.7 C 79 % 1029.0 hPa 0.0 l/m 11.0 km/h (2 Bft) W-NW 0.00 h 8 W/m -0.6 C 0.2 C
09.03.2005 19:00 2.2 C 84 % 1029.7 hPa 0.0 l/m 9.8 km/h (2 Bft) W-NW 0.00 h 0 W/m -0.1 C -0.3 C
09.03.2005 20:00 1.8 C 88 % 1029.8 hPa 0.0 l/m 5.9 km/h (2 Bft) W-NW 0.00 h 0 W/m -0.0 C 0.3 C
09.03.2005 21:00 1.2 C 90 % 1029.9 hPa 0.0 l/m 0.2 km/h (0 Bft) W 0.00 h 0 W/m -0.2 C 1.2 C
09.03.2005 22:00 0.7 C 93 % 1029.9 hPa 0.0 l/m 0.3 km/h (0 Bft) W 0.00 h 0 W/m -0.3 C 0.7 C
09.03.2005 23:00 0.9 C 94 % 1029.9 hPa 0.0 l/m 2.4 km/h (1 Bft) W-NW 0.00 h 0 W/m -0.0 C 0.4 C
10.03.2005 00:00 1.0 C 91 % 1029.9 hPa 0.0 l/m 1.3 km/h (1 Bft) SO 0.00 h 0 W/m -0.3 C 0.9 C
10.03.2005 01:00 1.1 C 90 % 1029.9 hPa 0.0 l/m 2.8 km/h (1 Bft) W 0.00 h 0 W/m -0.4 C 0.4 C
10.03.2005 02:00 1.0 C 88 % 1029.6 hPa 0.0 l/m 0.9 km/h (0 Bft) SO 0.00 h 0 W/m -0.8 C 0.9 C
10.03.2005 03:00 1.1 C 88 % 1028.8 hPa 0.0 l/m 0.0 km/h (0 Bft) N 0.00 h 0 W/m -0.7 C 1.1 C
10.03.2005 04:00 0.9 C 88 % 1028.9 hPa 0.0 l/m 1.1 km/h (1 Bft) SO 0.00 h 0 W/m -0.8 C 0.9 C
10.03.2005 05:00 0.8 C 90 % 1029.7 hPa 0.0 l/m 0.6 km/h (0 Bft) W-NW 0.00 h 0 W/m -0.7 C 0.7 C
10.03.2005 06:00 0.9 C 91 % 1029.1 hPa 0.0 l/m 0.1 km/h (0 Bft) N 0.00 h 5 W/m -0.4 C 0.9 C
10.03.2005 07:00 1.0 C 91 % 1029.8 hPa 0.0 l/m 0.2 km/h (0 Bft) N 0.00 h 40 W/m -0.2 C 1.0 C
10.03.2005 08:00 1.5 C 89 % 1029.8 hPa 0.0 l/m 0.1 km/h (0 Bft) NO 0.00 h 72 W/m -0.0 C 1.5 C
10.03.2005 09:00 2.1 C 87 % 1029.7 hPa 0.0 l/m 1.2 km/h (1 Bft) O-SO 0.27 h 186 W/m 0.1 C 1.9 C
10.03.2005 10:00 3.5 C 75 % 1029.5 hPa 0.0 l/m 1.4 km/h (1 Bft) W-NW 1.00 h 586 W/m -0.6 C 3.3 C
10.03.2005 11:00 4.4 C 62 % 1029.1 hPa 0.0 l/m 2.5 km/h (1 Bft) W-NW 0.30 h 296 W/m -2.2 C 4.0 C
10.03.2005 12:00 7.0 C 47 % 1028.0 hPa 0.0 l/m 9.2 km/h (2 Bft) O 0.90 h 678 W/m -3.6 C 5.4 C
10.03.2005 13:00 7.4 C 41 % 1027.8 hPa 0.0 l/m 11.1 km/h (2 Bft) O-SO 0.60 h 499 W/m -5.1 C 5.5 C
10.03.2005 14:00 8.0 C 37 % 1026.8 hPa 0.0 l/m 11.5 km/h (2 Bft) O-SO 0.97 h 580 W/m -5.8 C 6.1 C
10.03.2005 15:00 7.2 C 37 % 1026.7 hPa 0.0 l/m 5.4 km/h (1 Bft) O 1.00 h 491 W/m -6.3 C 6.4 C
10.03.2005 16:00 6.7 C 40 % 1025.9 hPa 0.0 l/m 10.8 km/h (2 Bft) O-SO 1.00 h 336 W/m -5.8 C 4.8 C
10.03.2005 17:00 5.5 C 45 % 1025.3 hPa 0.0 l/m 7.7 km/h (2 Bft) O-SO 0.67 h 124 W/m -5.6 C 4.1 C
10.03.2005 18:00 2.9 C 54 % 1025.4 hPa 0.0 l/m 3.3 km/h (1 Bft) O-SO 0.27 h 24 W/m -5.5 C 2.4 C
10.03.2005 19:00 0.8 C 63 % 1025.7 hPa 0.0 l/m 3.0 km/h (1 Bft) O-SO 0.00 h 0 W/m -5.4 C 0.1 C
10.03.2005 20:00 -0.9 C 73 % 1025.9 hPa 0.0 l/m 0.0 km/h (0 Bft) N 0.00 h 0 W/m -5.1 C -0.9 C
10.03.2005 21:00 -2.0 C 78 % 1025.3 hPa 0.0 l/m 0.2 km/h (0 Bft) O-SO 0.00 h 0 W/m -5.3 C -2.0 C
10.03.2005 22:00 -3.1 C 83 % 1025.3 hPa 0.0 l/m 0.0 km/h (0 Bft) N 0.00 h 0 W/m -5.6 C -3.1 C
10.03.2005 23:00 -3.5 C 86 % 1025.4 hPa 0.0 l/m 0.0 km/h (0 Bft) N 0.00 h 0 W/m -5.5 C -3.5 C
11.03.2005 00:00 -4.0 C 89 % 1024.9 hPa 0.0 l/m 0.0 km/h (0 Bft) N 0.00 h 0 W/m -5.6 C -4.0 C
11.03.2005 01:00 -4.3 C 90 % 1024.8 hPa 0.0 l/m 0.0 km/h (0 Bft) N 0.00 h 0 W/m -5.6 C -4.3 C
11.03.2005 02:00 -4.4 C 91 % 1024.5 hPa 0.0 l/m 0.0 km/h (0 Bft) N 0.00 h 0 W/m -5.6 C -4.4 C
11.03.2005 03:00 -4.8 C 92 % 1024.4 hPa 0.0 l/m 1.9 km/h (1 Bft) O-SO 0.00 h 0 W/m -5.9 C -5.1 C
11.03.2005 04:00 -5.1 C 93 % 1023.1 hPa 0.0 l/m 2.3 km/h (1 Bft) O-SO 0.00 h 0 W/m -6.1 C -5.9 C
11.03.2005 05:00 -5.5 C 93 % 1022.5 hPa 0.0 l/m 1.2 km/h (1 Bft) O-SO 0.00 h 0 W/m -6.4 C -5.6 C
11.03.2005 06:00 -5.5 C 93 % 1023.0 hPa 0.0 l/m 4.3 km/h (1 Bft) O-SO 0.00 h 9 W/m -6.5 C -7.3 C
11.03.2005 07:00 -4.8 C 91 % 1022.6 hPa 0.0 l/m 1.2 km/h (1 Bft) O-SO 0.67 h 79 W/m -6.1 C -5.1 C
11.03.2005 08:00 -2.6 C 84 % 1022.1 hPa 0.0 l/m 0.3 km/h (0 Bft) SO 0.93 h 196 W/m -5.0 C -2.6 C
11.03.2005 09:00 -1.0 C 76 % 1021.9 hPa 0.0 l/m 1.7 km/h (1 Bft) NW 1.00 h 359 W/m -4.8 C -1.3 C
11.03.2005 10:00 1.5 C 64 % 1020.8 hPa 0.0 l/m 16.3 km/h (3 Bft) W 1.00 h 535 W/m -4.5 C -2.5 C
11.03.2005 11:00 3.0 C 57 % 1020.1 hPa 0.0 l/m 24.6 km/h (4 Bft) W-NW 0.93 h 582 W/m -4.8 C -1.9 C
11.03.2005 12:00 4.6 C 53 % 1018.8 hPa 0.0 l/m 28.7 km/h (4 Bft) W-NW 1.00 h 631 W/m -4.2 C -0.3 C
11.03.2005 13:00 6.3 C 49 % 1017.2 hPa 0.0 l/m 27.5 km/h (4 Bft) W-NW 1.00 h 673 W/m -3.7 C 2.1 C
11.03.2005 14:00 6.3 C 47 % 1016.6 hPa 0.0 l/m 27.7 km/h (4 Bft) NW 1.00 h 469 W/m -4.1 C 2.0 C
11.03.2005 15:00 6.8 C 46 % 1015.7 hPa 0.0 l/m 30.6 km/h (5 Bft) W-NW 1.00 h 464 W/m -3.9 C 2.4 C
11.03.2005 16:00 7.0 C 47 % 1014.9 hPa 0.0 l/m 32.0 km/h (5 Bft) W-NW 0.70 h 186 W/m -3.6 C 2.5 C
11.03.2005 17:00 5.4 C 51 % 1014.9 hPa 0.0 l/m 39.7 km/h (6 Bft) NW 0.13 h 63 W/m -3.9 C -0.2 C
11.03.2005 18:00 4.4 C 54 % 1015.9 hPa 0.0 l/m 28.4 km/h (4 Bft) W-NW 0.00 h 8 W/m -4.1 C -0.6 C
11.03.2005 19:00 4.0 C 55 % 1015.1 hPa 0.0 l/m 35.9 km/h (5 Bft) NW 0.00 h 0 W/m -4.2 C -1.7 C
11.03.2005 20:00 4.0 C 55 % 1014.9 hPa 0.0 l/m 33.2 km/h (5 Bft) NW 0.00 h 0 W/m -4.3 C -1.5 C
11.03.2005 21:00 4.1 C 54 % 1014.7 hPa 0.0 l/m 33.0 km/h (5 Bft) W-NW 0.00 h 0 W/m -4.3 C -1.3 C
11.03.2005 22:00 4.3 C 52 % 1013.8 hPa 0.0 l/m 40.1 km/h (6 Bft) W-NW 0.00 h 0 W/m -4.7 C -1.6 C
11.03.2005 23:00 4.5 C 51 % 1013.3 hPa 0.0 l/m 35.4 km/h (5 Bft) W 0.00 h 0 W/m -4.6 C -1.0 C
12.03.2005 00:00 4.5 C 52 % 1012.6 hPa 0.0 l/m 31.8 km/h (5 Bft) W-NW 0.00 h 0 W/m -4.5 C -0.7 C
12.03.2005 01:00 4.7 C 52 % 1011.7 hPa 0.0 l/m 39.0 km/h (6 Bft) W-NW 0.00 h 0 W/m -4.3 C -1.0 C
12.03.2005 02:00 4.6 C 52 % 1010.6 hPa 0.0 l/m 45.4 km/h (6 Bft) W-NW 0.00 h 0 W/m -4.3 C -1.5 C
12.03.2005 03:00 4.5 C 54 % 1010.7 hPa 0.0 l/m 40.5 km/h (6 Bft) W-NW 0.00 h 0 W/m -4.1 C -1.3 C
12.03.2005 04:00 4.3 C 56 % 1010.7 hPa 0.0 l/m 34.3 km/h (5 Bft) W-NW 0.00 h 0 W/m -3.7 C -1.2 C
12.03.2005 05:00 4.3 C 57 % 1009.7 hPa 0.0 l/m 31.7 km/h (5 Bft) W-NW 0.00 h 0 W/m -3.5 C -1.0 C
12.03.2005 06:00 4.2 C 58 % 1009.6 hPa 0.0 l/m 34.4 km/h (5 Bft) W-NW 0.00 h 3 W/m -3.2 C -1.4 C
12.03.2005 07:00 3.8 C 60 % 1008.7 hPa 0.0 l/m 23.3 km/h (4 Bft) W 0.00 h 16 W/m -3.2 C -0.7 C
12.03.2005 08:00 3.5 C 62 % 1008.7 hPa 0.0 l/m 15.5 km/h (3 Bft) W 0.00 h 35 W/m -3.1 C -0.1 C
12.03.2005 09:00 3.5 C 63 % 1008.3 hPa 0.0 l/m 14.6 km/h (3 Bft) W 0.00 h 48 W/m -2.9 C 0.1 C
12.03.2005 10:00 3.9 C 61 % 1007.6 hPa 0.0 l/m 10.3 km/h (2 Bft) W-NW 0.00 h 54 W/m -3.0 C 1.5 C
12.03.2005 11:00 3.9 C 60 % 1007.6 hPa 0.0 l/m 14.9 km/h (3 Bft) W 0.00 h 57 W/m -3.1 C 0.6 C
12.03.2005 12:00 3.6 C 67 % 1006.9 hPa 0.0 l/m 15.2 km/h (3 Bft) S 0.00 h 87 W/m -2.0 C 0.1 C
12.03.2005 13:00 4.1 C 62 % 1006.2 hPa 0.0 l/m 18.7 km/h (3 Bft) W-SW 0.00 h 60 W/m -2.6 C 0.2 C
12.03.2005 14:00 3.5 C 71 % 1005.6 hPa 0.0 l/m 24.6 km/h (4 Bft) W-NW 0.00 h 54 W/m -1.4 C -1.2 C
12.03.2005 15:00 2.8 C 81 % 1006.5 hPa 0.6 l/m 16.6 km/h (3 Bft) W-NW 0.00 h 25 W/m -0.2 C -1.1 C
12.03.2005 16:00 1.4 C 88 % 1007.6 hPa 0.3 l/m 28.0 km/h (4 Bft) NW 0.00 h 35 W/m -0.4 C -4.4 C
12.03.2005 17:00 0.5 C 93 % 1008.3 hPa 0.0 l/m 32.0 km/h (5 Bft) W-NW 0.00 h 19 W/m -0.5 C -5.9 C
12.03.2005 18:00 0.3 C 97 % 1009.4 hPa 0.3 l/m 25.8 km/h (4 Bft) NW 0.00 h 5 W/m -0.1 C -5.5 C
12.03.2005 19:00 0.3 C 96 % 1010.2 hPa 0.0 l/m 21.2 km/h (4 Bft) NW 0.00 h 0 W/m -0.3 C -4.9 C
12.03.2005 20:00 0.1 C 95 % 1010.5 hPa 0.0 l/m 19.4 km/h (3 Bft) W-NW 0.00 h 0 W/m -0.6 C -4.8 C
12.03.2005 21:00 0.1 C 94 % 1011.3 hPa 0.0 l/m 15.0 km/h (3 Bft) W-NW 0.00 h 0 W/m -0.8 C -4.2 C
12.03.2005 22:00 0.5 C 93 % 1011.2 hPa 0.0 l/m 12.5 km/h (3 Bft) W-NW 0.00 h 0 W/m -0.5 C -3.2 C
12.03.2005 23:00 0.6 C 93 % 1011.7 hPa 0.0 l/m 16.5 km/h (3 Bft) W-NW 0.00 h 0 W/m -0.5 C -3.8 C
13.03.2005 00:00 0.6 C 92 % 1012.3 hPa 0.0 l/m 22.9 km/h (4 Bft) W-NW 0.00 h 0 W/m -0.6 C -4.7 C
13.03.2005 01:00 0.4 C 89 % 1012.3 hPa 0.0 l/m 17.8 km/h (3 Bft) W-NW 0.00 h 0 W/m -1.1 C -4.3 C
13.03.2005 02:00 -0.3 C 89 % 1013.4 hPa 0.0 l/m 11.6 km/h (2 Bft) W-NW 0.00 h 0 W/m -2.0 C -3.7 C
13.03.2005 03:00 -0.7 C 89 % 1013.5 hPa 0.0 l/m 10.4 km/h (2 Bft) W-NW 0.00 h 0 W/m -2.2 C -3.8 C
13.03.2005 04:00 -0.9 C 91 % 1013.7 hPa 0.0 l/m 4.8 km/h (1 Bft) O-SO 0.00 h 0 W/m -2.1 C -2.4 C
13.03.2005 05:00 -1.6 C 90 % 1014.7 hPa 0.0 l/m 2.5 km/h (1 Bft) SO 0.00 h 0 W/m -3.1 C -2.4 C
13.03.2005 06:00 -3.4 C 92 % 1015.0 hPa 0.0 l/m 1.5 km/h (1 Bft) SO 0.03 h 11 W/m -4.5 C -3.9 C
13.03.2005 07:00 -2.8 C 93 % 1015.9 hPa 0.0 l/m 2.0 km/h (1 Bft) SO 0.87 h 100 W/m -3.8 C -3.3 C
13.03.2005 08:00 -0.4 C 84 % 1015.6 hPa 0.0 l/m 5.9 km/h (2 Bft) O-SO 1.00 h 348 W/m -2.8 C -2.3 C
13.03.2005 09:00 1.7 C 74 % 1015.6 hPa 0.0 l/m 7.0 km/h (2 Bft) O-SO 1.00 h 466 W/m -2.4 C -0.4 C
13.03.2005 10:00 2.4 C 67 % 1016.2 hPa 0.0 l/m 1.8 km/h (1 Bft) W-NW 1.00 h 567 W/m -3.2 C 2.0 C
13.03.2005 11:00 4.2 C 60 % 1015.9 hPa 0.0 l/m 6.3 km/h (2 Bft) O-SO 1.00 h 679 W/m -2.9 C 2.9 C
13.03.2005 12:00 5.4 C 49 % 1015.3 hPa 0.0 l/m 2.0 km/h (1 Bft) NW 0.87 h 711 W/m -4.4 C 5.1 C
13.03.2005 13:00 6.3 C 43 % 1014.6 hPa 0.0 l/m 2.3 km/h (1 Bft) NW 0.80 h 573 W/m -5.5 C 6.1 C
13.03.2005 14:00 6.3 C 41 % 1014.6 hPa 0.0 l/m 2.7 km/h (1 Bft) NW 0.53 h 385 W/m -5.9 C 5.8 C
13.03.2005 15:00 7.5 C 35 % 1014.0 hPa 0.0 l/m 3.4 km/h (1 Bft) NW 0.95 h 491 W/m -6.9 C 7.1 C
13.03.2005 16:00 6.9 C 35 % 1013.7 hPa 0.0 l/m 1.3 km/h (1 Bft) NW 0.98 h 357 W/m -7.3 C 6.8 C
13.03.2005 17:00 5.8 C 37 % 1013.7 hPa 0.0 l/m 2.5 km/h (1 Bft) W-NW 0.90 h 133 W/m -7.8 C 5.3 C
13.03.2005 18:00 3.3 C 47 % 1014.9 hPa 0.0 l/m 0.8 km/h (0 Bft) W-NW 0.07 h 20 W/m -6.8 C 3.2 C
13.03.2005 19:00 1.2 C 61 % 1015.3 hPa 0.0 l/m 2.5 km/h (1 Bft) O-SO 0.00 h 0 W/m -5.4 C 0.5 C
13.03.2005 20:00 0.0 C 72 % 1015.5 hPa 0.0 l/m 2.4 km/h (1 Bft) O-SO 0.00 h 0 W/m -4.5 C -0.5 C
13.03.2005 21:00 -1.3 C 76 % 1015.8 hPa 0.0 l/m 0.0 km/h (0 Bft) N 0.00 h 0 W/m -5.1 C -1.3 C
13.03.2005 22:00 -2.1 C 81 % 1015.9 hPa 0.0 l/m 0.0 km/h (0 Bft) N 0.00 h 0 W/m -4.9 C -2.1 C
13.03.2005 23:00 -2.4 C 84 % 1015.8 hPa 0.0 l/m 0.0 km/h (0 Bft) N 0.00 h 0 W/m -4.8 C -2.4 C
Min-Datum _ 07.03.05 13.03.05 12.03.05 - 07.03.05 - - - 07.03.05 07.03.05
_ Min-Zeit 02:45 15:23 13:55 - 00:31 - - - 03:43 04:09
Minimum _ -10.1 C 33 % 1005.5 hPa - 0.0 km/h (0 Bft) - - - -13.3 C -15.1 C
Max-Datum _ 10.03.05 12.03.05 09.03.05 12.03.05 11.03.05 - 09.03.05 13.03.05 09.03.05 10.03.05
_ Max-Zeit 13:44 18:32 22:50 15:11 22:09 - 14:40 12:52 03:42 14:22
Maximum _ 8.5 C 98 % 1030.0 hPa 0.6 l/m 66.3 km/h
W-NW (8 Bft)
- 0.05 h 799 W/m 0.8 C 8.0 C
Durchschnitt _ 0.8 C 73 % 1021.4 hPa #2.7 l/m 11.1 km/h (2 Bft) W-NW #33:54 h 231 W/m -3.9 C -1.5 C

Durchschnitt Minimum Temp.0.4 C
Durchschnitt Maximum Temp.1.3 C
© Kaiko 2005